Time;durP1;ratioP1;P1;durP2;ratioP2;P2;SDS_P1;SDS_P2;PMS_P1;PMS_P2;Temp;Humidity;BMP_temperature;BMP_pressure;BME280_temperature;BME280_humidity;BME280_pressure;Samples;Min_cycle;Max_cycle;Signal;HPM_P1;HPM_P2
2021/10/14 00:02:12;;;;;;;4.47;1.30;;;;;;;14.51;100.00;102504.66;5066873;28;20044;-36
2021/10/14 00:04:40;;;;;;;4.22;1.00;;;;;;;14.49;100.00;102501.31;5072068;28;20048;-35
2021/10/14 00:07:09;;;;;;;8.02;1.85;;;;;;;14.51;100.00;102512.25;5072728;28;20048;-35
2021/10/14 00:09:37;;;;;;;3.90;1.58;;;;;;;14.48;100.00;102508.88;5072403;28;20052;-34
2021/10/14 00:12:05;;;;;;;4.05;1.35;;;;;;;14.49;100.00;102504.09;5071768;28;20538;-35
2021/10/14 00:14:33;;;;;;;4.70;2.33;;;;;;;14.44;100.00;102502.16;5072691;28;20056;-33
2021/10/14 00:17:01;;;;;;;5.80;2.20;;;;;;;14.39;100.00;102488.06;5072333;28;20044;-34
2021/10/14 00:19:29;;;;;;;6.35;2.20;;;;;;;14.37;100.00;102495.97;5071812;28;20044;-34
2021/10/14 00:21:57;;;;;;;5.53;1.80;;;;;;;14.36;100.00;102496.25;5072112;28;20385;-36
2021/10/14 00:24:26;;;;;;;4.43;1.40;;;;;;;14.36;100.00;102493.44;5072454;28;20083;-36
2021/10/14 00:26:53;;;;;;;6.70;1.50;;;;;;;14.35;100.00;102492.59;5071416;28;20140;-34
2021/10/14 00:29:21;;;;;;;5.10;1.00;;;;;;;14.34;100.00;102493.72;5072019;28;20056;-35
2021/10/14 00:31:49;;;;;;;4.85;1.40;;;;;;;14.33;100.00;102491.22;5071788;28;20052;-34
2021/10/14 00:34:16;;;;;;;2.40;0.95;;;;;;;14.32;100.00;102489.53;5071650;28;20067;-34
2021/10/14 00:36:44;;;;;;;2.95;1.10;;;;;;;14.31;100.00;102482.22;5071797;28;20071;-35
2021/10/14 00:39:12;;;;;;;2.42;0.90;;;;;;;14.30;100.00;102491.78;5072025;28;20054;-34
2021/10/14 00:41:41;;;;;;;6.57;1.50;;;;;;;14.30;100.00;102487.00;5071191;28;20519;-38
2021/10/14 00:44:09;;;;;;;3.40;1.55;;;;;;;14.30;100.00;102486.16;5071776;28;20075;-34
2021/10/14 00:46:36;;;;;;;6.45;1.52;;;;;;;14.31;100.00;102476.59;5071805;28;20041;-33
2021/10/14 00:49:04;;;;;;;5.10;1.50;;;;;;;14.30;100.00;102477.72;5071288;28;20052;-35
2021/10/14 00:51:32;;;;;;;4.15;1.63;;;;;;;14.31;100.00;102476.59;5071687;28;20416;-36
2021/10/14 00:54:00;;;;;;;4.03;1.48;;;;;;;14.32;100.00;102472.66;5071086;28;20062;-34
2021/10/14 00:56:27;;;;;;;5.25;1.65;;;;;;;14.31;100.00;102476.59;5071641;28;20052;-34
2021/10/14 00:58:57;;;;;;;5.22;1.70;;;;;;;14.32;100.00;102472.66;5070126;28;20498;-36
2021/10/14 01:01:25;;;;;;;3.30;1.40;;;;;;;14.32;100.00;102467.06;5071177;28;20044;-34
2021/10/14 01:03:53;;;;;;;4.82;1.48;;;;;;;14.33;100.00;102466.78;5071588;28;20053;-34
2021/10/14 01:06:20;;;;;;;3.60;1.40;;;;;;;14.33;100.00;102463.97;5071537;28;20052;-35
2021/10/14 01:08:48;;;;;;;4.90;1.80;;;;;;;14.34;100.00;102462.84;5070463;28;20135;-34
2021/10/14 01:11:16;;;;;;;3.53;1.48;;;;;;;14.34;100.00;102462.00;5071321;28;20132;-33
2021/10/14 01:13:43;;;;;;;3.75;1.40;;;;;;;14.34;100.00;102465.66;5071022;28;20075;-36
2021/10/14 01:16:12;;;;;;;3.40;1.27;;;;;;;14.35;100.00;102460.88;5070977;28;20047;-33
2021/10/14 01:18:40;;;;;;;4.90;1.40;;;;;;;14.35;100.00;102461.72;5070962;28;20049;-36
2021/10/14 01:21:10;;;;;;;4.18;1.50;;;;;;;14.36;100.00;102448.50;5060657;28;20409;-36
2021/10/14 01:23:38;;;;;;;4.00;1.38;;;;;;;14.37;100.00;102447.38;5069133;28;20413;-36
2021/10/14 01:26:06;;;;;;;3.80;1.65;;;;;;;14.39;100.00;102445.09;5071382;28;20048;-34
2021/10/14 01:28:35;;;;;;;6.55;1.90;;;;;;;14.37;100.00;102453.84;5070963;28;20045;-38
2021/10/14 01:31:03;;;;;;;5.70;1.50;;;;;;;14.37;100.00;102444.59;5070542;28;20139;-39
2021/10/14 01:33:31;;;;;;;4.47;1.20;;;;;;;14.36;100.00;102443.75;5071212;28;20114;-40
2021/10/14 01:35:59;;;;;;;5.22;1.60;;;;;;;14.37;100.00;102445.41;5070806;28;20165;-36
2021/10/14 01:38:28;;;;;;;4.10;1.52;;;;;;;14.37;100.00;102438.97;5070654;28;20056;-34
2021/10/14 01:40:56;;;;;;;5.13;1.45;;;;;;;14.36;100.00;102435.31;5071144;28;20048;-39
2021/10/14 01:43:23;;;;;;;5.60;1.52;;;;;;;14.35;100.00;102442.06;5070383;28;20045;-37
2021/10/14 01:45:51;;;;;;;4.45;1.73;;;;;;;14.34;100.00;102437.56;5071008;28;20043;-34
2021/10/14 01:48:19;;;;;;;4.10;1.60;;;;;;;14.32;100.00;102434.19;5055896;28;20159;-39
2021/10/14 01:50:47;;;;;;;6.57;1.73;;;;;;;14.33;100.00;102447.13;5070169;28;20041;-39
2021/10/14 01:53:15;;;;;;;3.72;1.52;;;;;;;14.33;100.00;102440.66;5070704;28;20623;-34
2021/10/14 01:55:44;;;;;;;4.72;1.70;;;;;;;14.32;100.00;102441.78;5070799;28;20410;-35
2021/10/14 01:58:18;;;;;;;4.00;1.40;;;;;;;14.31;100.00;102431.69;5070522;28;20041;-34
2021/10/14 02:00:46;;;;;;;3.17;1.38;;;;;;;14.31;100.00;102442.91;5067588;28;20066;-35
2021/10/14 02:03:15;;;;;;;4.43;1.35;;;;;;;14.31;100.00;102440.09;5070842;28;20413;-34
2021/10/14 02:05:43;;;;;;;4.10;1.10;;;;;;;14.30;100.00;102438.41;5069752;28;20454;-36
2021/10/14 02:08:11;;;;;;;3.53;1.38;;;;;;;14.30;100.00;102442.06;5071184;28;20054;-34
2021/10/14 02:10:40;;;;;;;6.47;1.67;;;;;;;14.31;100.00;102442.91;5070507;28;20033;-36
2021/10/14 02:13:10;;;;;;;3.65;1.35;;;;;;;14.31;100.00;102442.91;5070580;28;20060;-34
2021/10/14 02:15:38;;;;;;;6.60;1.42;;;;;;;14.30;100.00;102432.81;5070456;28;20071;-36
2021/10/14 02:18:06;;;;;;;5.93;1.60;;;;;;;14.29;100.00;102429.16;5070837;28;20131;-39
2021/10/14 02:20:33;;;;;;;6.95;2.22;;;;;;;14.27;100.00;102438.97;5069862;28;20052;-40
2021/10/14 02:23:01;;;;;;;8.55;2.75;;;;;;;14.25;100.00;102435.63;5070726;28;20123;-40
2021/10/14 02:25:29;;;;;;;7.35;3.42;;;;;;;14.21;100.00;102428.88;5070112;28;20046;-40
2021/10/14 02:27:57;;;;;;;5.10;2.90;;;;;;;14.18;100.00;102426.66;5074661;28;20048;-40
2021/10/14 02:30:26;;;;;;;7.80;4.03;;;;;;;14.13;100.00;102427.53;5074389;28;20383;-34
2021/10/14 02:32:53;;;;;;;7.43;3.50;;;;;;;14.08;100.00;102419.94;5073748;28;20063;-34
2021/10/14 02:35:21;;;;;;;9.32;3.92;;;;;;;14.08;100.00;102424.72;5074238;28;20501;-37
2021/10/14 02:37:49;;;;;;;5.50;2.88;;;;;;;14.07;100.00;102428.66;5074139;28;20569;-35
2021/10/14 02:40:16;;;;;;;6.07;3.00;;;;;;;14.06;100.00;102422.19;5073755;28;20083;-36
2021/10/14 02:42:44;;;;;;;7.53;3.70;;;;;;;14.07;100.00;102421.06;5073122;28;20060;-35
2021/10/14 02:45:12;;;;;;;8.35;3.80;;;;;;;14.06;100.00;102421.34;5058861;28;20052;-35
2021/10/14 02:47:41;;;;;;;8.98;4.22;;;;;;;14.06;100.00;102424.16;5073651;28;20398;-35
2021/10/14 02:50:09;;;;;;;7.22;3.78;;;;;;;14.03;100.00;102430.34;5073963;28;20059;-39
2021/10/14 02:52:37;;;;;;;9.05;3.97;;;;;;;14.03;100.00;102419.94;5074033;28;20135;-35
2021/10/14 02:55:05;;;;;;;7.40;4.22;;;;;;;14.03;100.00;102422.75;5073352;28;20052;-36
2021/10/14 02:57:33;;;;;;;7.35;3.60;;;;;;;14.03;100.00;102417.16;5073659;28;20048;-34
2021/10/14 03:00:01;;;;;;;8.02;3.78;;;;;;;14.05;100.00;102416.88;5074243;28;20230;-34
2021/10/14 03:02:28;;;;;;;6.28;3.00;;;;;;;14.05;100.00;102416.88;5073184;28;20474;-36
2021/10/14 03:04:57;;;;;;;6.03;2.60;;;;;;;14.04;100.00;102415.19;5074113;28;20090;-36
2021/10/14 03:07:25;;;;;;;6.82;2.80;;;;;;;14.01;100.00;102412.94;5073313;28;20041;-35
2021/10/14 03:09:53;;;;;;;7.35;2.60;;;;;;;13.98;100.00;102411.56;5073326;28;20071;-34
2021/10/14 03:12:21;;;;;;;5.65;2.47;;;;;;;13.98;100.00;102405.94;5072973;28;20486;-40
2021/10/14 03:14:48;;;;;;;7.60;2.92;;;;;;;14.00;100.00;102409.28;5073459;28;20045;-36
2021/10/14 03:17:16;;;;;;;5.55;2.70;;;;;;;14.01;100.00;102413.78;5072325;28;20040;-35
2021/10/14 03:19:44;;;;;;;7.60;2.70;;;;;;;14.02;100.00;102409.00;5073939;28;20091;-39
2021/10/14 03:22:13;;;;;;;6.05;2.70;;;;;;;14.02;100.00;102404.22;5072727;28;20049;-39
2021/10/14 03:24:40;;;;;;;6.18;2.45;;;;;;;14.03;100.00;102394.69;5072429;28;20413;-39
2021/10/14 03:27:08;;;;;;;4.95;2.50;;;;;;;14.02;100.00;102398.63;5073465;28;20048;-35
2021/10/14 03:29:36;;;;;;;6.95;2.60;;;;;;;14.03;100.00;102393.84;5072765;28;20056;-34
2021/10/14 03:32:04;;;;;;;4.63;2.45;;;;;;;14.03;100.00;102389.06;5073112;28;20036;-36
2021/10/14 03:34:33;;;;;;;6.50;2.10;;;;;;;14.03;100.00;102386.28;5073206;28;20421;-34
2021/10/14 03:37:01;;;;;;;6.00;2.58;;;;;;;14.04;100.00;102390.75;5071592;28;20045;-36
2021/10/14 03:39:30;;;;;;;5.85;2.05;;;;;;;14.04;100.00;102389.91;5072518;28;20047;-34
2021/10/14 03:41:58;;;;;;;5.50;1.90;;;;;;;14.04;100.00;102385.16;5073192;28;20044;-33
2021/10/14 03:44:26;;;;;;;8.02;2.10;;;;;;;14.06;100.00;102382.06;5072305;28;20044;-34
2021/10/14 03:46:53;;;;;;;6.38;2.30;;;;;;;14.07;100.00;102383.75;5073022;28;20067;-36
2021/10/14 03:49:21;;;;;;;7.18;2.13;;;;;;;14.06;99.99;102388.50;5069309;28;20478;-33
2021/10/14 03:51:49;;;;;;;6.00;1.95;;;;;;;14.06;99.63;102382.06;5072310;28;20052;-35
2021/10/14 03:54:17;;;;;;;3.70;1.75;;;;;;;14.06;99.50;102385.69;5072669;28;20056;-34
2021/10/14 03:56:46;;;;;;;5.78;2.00;;;;;;;14.06;99.35;102385.69;5073256;28;20048;-34
2021/10/14 03:59:13;;;;;;;6.78;1.75;;;;;;;14.06;99.17;102382.91;5072487;28;20056;-35
2021/10/14 04:01:41;;;;;;;5.20;1.65;;;;;;;14.06;98.80;102390.47;5072890;28;20040;-35
2021/10/14 04:04:09;;;;;;;4.50;1.58;;;;;;;14.07;98.58;102392.16;5071820;28;20444;-33
2021/10/14 04:06:37;;;;;;;8.15;2.20;;;;;;;14.06;98.57;102388.50;5061930;28;20416;-34
2021/10/14 04:09:04;;;;;;;6.07;2.08;;;;;;;14.06;98.23;102391.31;5072482;28;20045;-34
2021/10/14 04:11:34;;;;;;;5.10;1.67;;;;;;;14.06;98.26;102391.31;5072096;28;20044;-35
2021/10/14 04:14:03;;;;;;;7.55;2.00;;;;;;;14.07;98.16;102393.00;5072192;28;20426;-34
2021/10/14 04:16:31;;;;;;;4.80;1.83;;;;;;;14.07;97.97;102390.19;5069182;28;20054;-34
2021/10/14 04:18:59;;;;;;;5.20;1.63;;;;;;;14.06;97.81;102391.31;5071481;28;20063;-35
2021/10/14 04:21:27;;;;;;;6.72;1.90;;;;;;;14.06;97.76;102388.50;5071965;28;20033;-34
2021/10/14 04:23:56;;;;;;;8.43;3.05;;;;;;;14.05;97.89;102389.63;5072366;28;20486;-33
2021/10/14 04:26:23;;;;;;;7.00;2.38;;;;;;;14.05;97.63;102398.06;5071487;28;20048;-35
2021/10/14 04:28:51;;;;;;;5.78;1.98;;;;;;;14.05;97.26;102388.78;5072118;28;20049;-34
2021/10/14 04:31:20;;;;;;;6.97;2.22;;;;;;;14.02;95.93;102395.81;5071742;28;20404;-34
2021/10/14 04:33:48;;;;;;;5.15;1.73;;;;;;;13.97;95.16;102381.81;5071652;28;20052;-34
2021/10/14 04:36:16;;;;;;;4.00;1.75;;;;;;;13.97;94.37;102386.59;5072028;28;20048;-37
2021/10/14 04:38:44;;;;;;;5.90;1.83;;;;;;;13.94;93.71;102375.94;5071849;28;20067;-35
2021/10/14 04:41:11;;;;;;;5.60;1.67;;;;;;;13.94;93.03;102375.94;5071324;28;20048;-34
2021/10/14 04:43:39;;;;;;;5.00;1.75;;;;;;;13.92;92.05;102381.81;5071803;28;20175;-37
2021/10/14 04:46:07;;;;;;;5.82;1.70;;;;;;;13.92;91.80;102384.63;5071111;28;20132;-34
2021/10/14 04:48:36;;;;;;;5.15;1.45;;;;;;;13.89;90.91;102385.19;5071601;28;20044;-35
2021/10/14 04:51:04;;;;;;;4.30;1.60;;;;;;;13.89;90.61;102382.38;5071324;28;20063;-34
2021/10/14 04:53:32;;;;;;;4.47;1.50;;;;;;;13.87;89.87;102390.25;5071276;28;20049;-39
2021/10/14 04:56:00;;;;;;;4.03;1.60;;;;;;;13.87;89.78;102387.44;5071241;28;20139;-37
2021/10/14 04:58:27;;;;;;;5.43;1.83;;;;;;;13.88;89.46;102389.13;5071657;28;20044;-34
2021/10/14 05:00:55;;;;;;;6.10;1.98;;;;;;;13.86;89.11;102385.75;5070930;28;20036;-39
2021/10/14 05:03:24;;;;;;;4.68;1.50;;;;;;;13.85;88.91;102389.69;5071524;28;20089;-36
2021/10/14 05:05:53;;;;;;;5.05;1.73;;;;;;;13.86;88.84;102382.94;5071291;28;20045;-34
2021/10/14 05:08:20;;;;;;;5.10;1.73;;;;;;;13.86;88.78;102385.75;5070596;28;20037;-37
2021/10/14 05:10:48;;;;;;;7.00;2.17;;;;;;;13.84;88.57;102393.63;5071083;28;20437;-37
2021/10/14 05:13:20;;;;;;;7.03;2.50;;;;;;;13.81;88.16;102377.34;5070891;28;20060;-37
2021/10/14 05:15:47;;;;;;;6.07;2.17;;;;;;;13.80;87.78;102384.91;5070877;28;20052;-33
2021/10/14 05:18:15;;;;;;;6.45;2.47;;;;;;;13.80;87.59;102384.09;5071357;28;20040;-42
2021/10/14 05:20:43;;;;;;;7.43;2.40;;;;;;;13.79;87.83;102379.59;5071008;28;20090;-35
2021/10/14 05:23:12;;;;;;;5.28;2.17;;;;;;;13.79;87.59;102377.63;5070437;28;20119;-35
2021/10/14 05:25:40;;;;;;;5.70;1.90;;;;;;;13.79;87.18;102371.16;5070853;28;20036;-34
2021/10/14 05:28:08;;;;;;;4.88;2.10;;;;;;;13.79;87.26;102372.00;5071242;28;20096;-33
2021/10/14 05:30:36;;;;;;;4.95;1.92;;;;;;;13.78;86.60;102366.72;5070630;28;20040;-33
2021/10/14 05:33:04;;;;;;;5.03;2.38;;;;;;;13.78;86.85;102369.53;5070904;28;20040;-34
2021/10/14 05:35:36;;;;;;;5.82;1.80;;;;;;;13.77;86.50;102362.22;5070537;28;20382;-34
2021/10/14 05:38:03;;;;;;;5.15;2.15;;;;;;;13.78;86.65;102369.53;5070704;28;20044;-34
2021/10/14 05:40:33;;;;;;;4.85;2.20;;;;;;;13.79;86.72;102362.75;5071075;28;20076;-35
2021/10/14 05:43:01;;;;;;;6.57;1.90;;;;;;;13.79;86.83;102369.22;5069525;28;20098;-35
2021/10/14 05:45:29;;;;;;;6.90;2.60;;;;;;;13.79;86.72;102363.59;5071388;28;20048;-34
2021/10/14 05:47:57;;;;;;;7.05;2.08;;;;;;;13.79;86.69;102359.94;5070659;28;20045;-33
2021/10/14 05:50:24;;;;;;;6.93;1.83;;;;;;;13.79;86.67;102365.56;5070480;28;20094;-34
2021/10/14 05:52:52;;;;;;;5.93;1.70;;;;;;;13.80;86.80;102364.44;5070392;28;20493;-36
2021/10/14 05:55:20;;;;;;;5.18;2.40;;;;;;;13.82;87.22;102358.53;5071089;28;20066;-34
2021/10/14 05:57:49;;;;;;;6.88;2.10;;;;;;;13.82;87.40;102359.38;5068532;28;20044;-37
2021/10/14 06:00:17;;;;;;;7.43;2.00;;;;;;;13.81;87.23;102363.31;5070769;28;20067;-35
2021/10/14 06:02:45;;;;;;;7.32;2.38;;;;;;;13.82;87.12;102361.34;5074691;28;20607;-33
2021/10/14 06:05:12;;;;;;;5.53;1.85;;;;;;;13.81;87.08;102360.50;5074391;28;20052;-34
2021/10/14 06:07:40;;;;;;;6.70;1.80;;;;;;;13.82;87.15;102358.53;5074555;28;20413;-35
2021/10/14 06:10:08;;;;;;;6.32;2.38;;;;;;;13.79;86.50;102363.59;5074976;28;20047;-34
2021/10/14 06:12:37;;;;;;;5.10;1.90;;;;;;;13.76;85.47;102360.53;5073555;28;20082;-33
2021/10/14 06:15:08;;;;;;;6.28;2.30;;;;;;;13.76;85.40;102358.59;5074265;28;20056;-33
2021/10/14 06:17:36;;;;;;;5.60;1.98;;;;;;;13.75;85.21;102358.88;5072078;28;20416;-33
2021/10/14 06:20:05;;;;;;;5.43;2.10;;;;;;;13.74;85.15;102360.00;5074368;28;20043;-34
2021/10/14 06:22:33;;;;;;;7.38;2.50;;;;;;;13.74;85.16;102362.78;5074188;28;20034;-35
2021/10/14 06:25:00;;;;;;;7.93;2.42;;;;;;;13.75;84.99;102358.88;5073612;28;20476;-33
2021/10/14 06:27:28;;;;;;;8.20;2.03;;;;;;;13.75;85.02;102351.28;5073949;28;20090;-33
2021/10/14 06:29:58;;;;;;;5.97;1.90;;;;;;;13.75;84.87;102351.28;5073710;28;20053;-34
2021/10/14 06:32:27;;;;;;;6.15;2.00;;;;;;;13.76;84.72;102358.59;5073531;28;20071;-34
2021/10/14 06:34:55;;;;;;;4.75;1.90;;;;;;;13.76;84.33;102346.53;5074051;28;20044;-34
2021/10/14 06:37:23;;;;;;;4.53;2.20;;;;;;;13.75;84.07;102351.28;5072850;28;20489;-34
2021/10/14 06:39:51;;;;;;;5.40;2.40;;;;;;;13.76;84.10;102340.91;5072332;28;20451;-35
2021/10/14 06:42:19;;;;;;;5.93;2.30;;;;;;;13.77;84.39;102342.59;5074225;28;20049;-35
2021/10/14 06:44:46;;;;;;;6.57;2.22;;;;;;;13.78;84.63;102349.88;5073645;28;20152;-34
2021/10/14 06:47:14;;;;;;;8.35;2.20;;;;;;;13.76;84.43;102341.75;5072525;28;20052;-36
2021/10/14 06:49:43;;;;;;;5.97;2.10;;;;;;;13.76;84.22;102344.56;5073797;28;20379;-34
2021/10/14 06:52:11;;;;;;;8.30;2.42;;;;;;;13.74;83.36;102343.16;5063147;28;20497;-34
2021/10/14 06:54:38;;;;;;;7.93;2.30;;;;;;;13.74;82.69;102338.38;5073079;28;20052;-34
2021/10/14 06:57:07;;;;;;;5.63;2.58;;;;;;;13.74;83.17;102343.16;5073851;28;20044;-33
2021/10/14 06:59:35;;;;;;;4.50;2.50;;;;;;;13.76;83.28;102338.09;5073801;28;20072;-39
2021/10/14 07:02:03;;;;;;;6.38;2.35;;;;;;;13.77;83.25;102348.19;5073409;28;20055;-36
2021/10/14 07:04:30;;;;;;;5.40;2.20;;;;;;;13.78;82.63;102344.28;5073766;28;20053;-34
2021/10/14 07:07:00;;;;;;;4.55;2.22;;;;;;;13.77;82.05;102340.63;5073036;28;20095;-32
2021/10/14 07:09:27;;;;;;;6.93;2.35;;;;;;;13.76;81.52;102343.72;5073494;28;20114;-33
2021/10/14 07:11:57;;;;;;;7.93;2.70;;;;;;;13.77;81.81;102340.63;5072715;28;20059;-33
2021/10/14 07:14:25;;;;;;;6.75;2.40;;;;;;;13.79;81.90;102351.53;5073311;28;20036;-33
2021/10/14 07:16:53;;;;;;;5.30;2.50;;;;;;;13.79;82.28;102351.53;5073698;28;20064;-35
2021/10/14 07:19:21;;;;;;;4.93;2.50;;;;;;;13.80;82.43;102347.59;5058437;28;20060;-33
2021/10/14 07:21:49;;;;;;;5.18;2.42;;;;;;;13.78;82.17;102352.69;5072740;28;20048;-33
2021/10/14 07:24:19;;;;;;;3.78;2.20;;;;;;;13.79;82.01;102345.91;5073154;28;20083;-33
2021/10/14 07:26:47;;;;;;;4.80;2.47;;;;;;;13.80;82.13;102342.84;5073376;28;20050;-33
2021/10/14 07:29:15;;;;;;;8.15;3.00;;;;;;;13.80;82.66;102342.84;5072917;28;20051;-34
2021/10/14 07:31:43;;;;;;;6.57;3.42;;;;;;;13.83;82.84;102347.03;5073087;28;20062;-33
2021/10/14 07:34:10;;;;;;;7.40;3.05;;;;;;;13.83;83.00;102341.44;5073342;28;20155;-34
2021/10/14 07:36:38;;;;;;;6.47;2.90;;;;;;;13.81;82.67;102343.66;5072174;28;20045;-36
2021/10/14 07:39:06;;;;;;;5.10;2.60;;;;;;;13.79;82.38;102340.31;5073359;28;20052;-33
2021/10/14 07:41:35;;;;;;;6.30;2.67;;;;;;;13.79;82.15;102354.34;5072930;28;20090;-33
2021/10/14 07:44:03;;;;;;;6.55;2.80;;;;;;;13.77;82.29;102351.84;5072559;28;20052;-32
2021/10/14 07:46:31;;;;;;;7.40;3.10;;;;;;;13.76;82.62;102343.72;5072718;28;20090;-34
2021/10/14 07:49:03;;;;;;;6.85;2.63;;;;;;;13.76;82.66;102360.53;5061699;28;20052;-34
2021/10/14 07:51:31;;;;;;;4.78;2.47;;;;;;;13.76;82.62;102347.34;5072495;28;20068;-35
2021/10/14 07:53:59;;;;;;;7.30;2.75;;;;;;;13.77;82.73;102360.25;5072712;28;20490;-34
2021/10/14 07:56:27;;;;;;;7.10;3.08;;;;;;;13.79;82.99;102354.34;5072057;28;20055;-34
2021/10/14 07:58:56;;;;;;;6.70;3.28;;;;;;;13.78;82.63;102359.13;5069177;28;20135;-35
2021/10/14 08:01:24;;;;;;;7.03;2.60;;;;;;;13.80;82.60;102364.44;5072486;28;20474;-35
2021/10/14 08:03:52;;;;;;;5.47;2.63;;;;;;;13.81;82.66;102357.69;5071800;28;20068;-36
2021/10/14 08:06:20;;;;;;;5.43;2.30;;;;;;;13.81;82.73;102354.91;5072728;28;20404;-34
2021/10/14 08:08:47;;;;;;;9.43;2.75;;;;;;;13.82;82.75;102356.59;5072456;28;20464;-35
2021/10/14 08:11:15;;;;;;;4.78;2.63;;;;;;;13.82;82.32;102355.75;5072035;28;20048;-34
2021/10/14 08:13:43;;;;;;;5.45;2.58;;;;;;;13.82;82.42;102358.53;5071947;28;20048;-33
2021/10/14 08:16:12;;;;;;;6.00;2.67;;;;;;;13.84;82.54;102359.94;5072408;28;20044;-34
2021/10/14 08:18:40;;;;;;;8.20;2.97;;;;;;;13.83;82.18;102363.88;5071900;28;20045;-35
2021/10/14 08:21:08;;;;;;;5.78;2.95;;;;;;;13.85;82.23;102357.97;5072328;28;20060;-32
2021/10/14 08:23:35;;;;;;;6.50;2.85;;;;;;;13.84;81.93;102357.13;5071338;28;20571;-33
2021/10/14 08:26:03;;;;;;;6.75;3.08;;;;;;;13.86;82.01;102354.06;5071783;28;20409;-35
2021/10/14 08:28:31;;;;;;;6.95;3.17;;;;;;;13.88;82.40;102355.44;5071218;28;20127;-34
2021/10/14 08:30:59;;;;;;;8.50;3.20;;;;;;;13.93;82.67;102355.44;5072152;28;20052;-34
2021/10/14 08:33:28;;;;;;;5.82;2.80;;;;;;;13.98;83.01;102351.78;5071363;28;20059;-34
2021/10/14 08:35:56;;;;;;;7.07;2.88;;;;;;;14.00;83.07;102355.97;5072130;28;20040;-34
2021/10/14 08:38:23;;;;;;;7.25;3.15;;;;;;;14.02;83.11;102356.53;5071046;28;20058;-37
2021/10/14 08:40:52;;;;;;;6.57;2.72;;;;;;;14.06;82.99;102354.81;5072181;28;20071;-39
2021/10/14 08:43:21;;;;;;;5.55;2.45;;;;;;;14.09;82.89;102351.44;5071421;28;20036;-39
2021/10/14 08:45:50;;;;;;;11.38;3.28;;;;;;;14.11;82.98;102346.41;5071294;28;20056;-40
2021/10/14 08:48:18;;;;;;;9.35;3.25;;;;;;;14.14;82.81;102354.25;5071612;28;20056;-38
2021/10/14 08:50:48;;;;;;;4.88;2.47;;;;;;;14.18;83.30;102348.06;5071857;28;20055;-37
2021/10/14 08:53:16;;;;;;;8.25;3.25;;;;;;;14.20;83.26;102351.41;5070532;28;20044;-33
2021/10/14 08:55:44;;;;;;;8.65;3.05;;;;;;;14.25;83.20;102359.81;5071470;28;20059;-33
2021/10/14 08:58:13;;;;;;;6.97;2.80;;;;;;;14.27;83.08;102349.97;5071401;28;20045;-37
2021/10/14 09:01:03;;;;;;;5.95;2.40;;;;;;;14.30;82.43;102351.38;5070990;28;20075;-35
2021/10/14 09:03:31;;;;;;;7.55;2.35;;;;;;;14.30;82.22;102351.38;5071359;28;20055;-34
2021/10/14 09:06:00;;;;;;;7.25;2.38;;;;;;;14.35;82.05;102337.31;5071062;28;20075;-35
2021/10/14 09:08:35;;;;;;;5.38;2.15;;;;;;;14.41;82.16;102342.63;5070611;28;20056;-35
2021/10/14 09:11:05;;;;;;;5.90;2.10;;;;;;;14.50;81.57;102331.63;5070930;28;20067;-33
2021/10/14 09:13:33;;;;;;;4.65;2.00;;;;;;;14.57;81.26;102343.41;5070538;28;20071;-34
2021/10/14 09:16:23;;;;;;;6.30;2.28;;;;;;;14.64;80.70;102352.31;5071051;28;20418;-36
2021/10/14 09:18:52;;;;;;;5.68;2.50;;;;;;;14.65;80.51;102344.75;5066974;28;20061;-36
2021/10/14 09:21:30;;;;;;;5.75;2.30;;;;;;;14.70;80.01;102347.53;5070548;28;20098;-34
2021/10/14 09:23:59;;;;;;;5.72;2.00;;;;;;;14.70;79.47;102337.13;5071263;28;20493;-34
2021/10/14 09:26:32;;;;;;;8.15;2.63;;;;;;;14.75;79.49;102341.88;5070940;28;20079;-34
2021/10/14 09:29:10;;;;;;;4.53;2.13;;;;;;;14.75;79.35;102342.72;5070567;28;20041;-33
2021/10/14 09:31:50;;;;;;;4.80;2.13;;;;;;;14.80;79.44;102341.81;5071022;28;20156;-34
2021/10/14 09:34:29;;;;;;;6.68;2.40;;;;;;;14.87;79.72;102345.16;5070923;28;20055;-34
2021/10/14 09:37:00;;;;;;;6.22;2.13;;;;;;;14.96;80.10;102339.75;5070962;28;20040;-34
2021/10/14 09:39:27;;;;;;;6.70;2.28;;;;;;;15.13;79.91;102334.56;5071042;28;20074;-33
2021/10/14 09:41:57;;;;;;;8.32;2.35;;;;;;;15.22;79.34;102329.97;5070146;28;20409;-34
2021/10/14 09:44:49;;;;;;;4.95;2.00;;;;;;;15.34;79.35;102336.06;5070901;28;20309;-36
2021/10/14 09:47:18;;;;;;;6.82;2.25;;;;;;;15.46;79.25;102327.22;5070852;28;20528;-35
2021/10/14 09:49:46;;;;;;;3.97;1.80;;;;;;;15.58;79.15;102338.13;5070310;28;20051;-35
2021/10/14 09:52:15;;;;;;;6.72;1.92;;;;;;;15.63;78.68;102338.88;5070637;28;20047;-36
2021/10/14 09:54:43;;;;;;;6.72;2.17;;;;;;;15.63;78.11;102333.25;5070404;28;20094;-39
2021/10/14 09:57:10;;;;;;;4.97;2.20;;;;;;;15.59;77.62;102328.53;5070066;28;20055;-34
2021/10/14 09:59:38;;;;;;;7.03;1.92;;;;;;;15.59;77.79;102320.09;5070680;28;20140;-33
2021/10/14 10:02:07;;;;;;;6.18;1.90;;;;;;;15.61;78.06;102327.09;5070482;28;20139;-35
2021/10/14 10:04:36;;;;;;;6.85;2.20;;;;;;;15.63;78.02;102321.16;5069909;28;20506;-33
2021/10/14 10:07:05;;;;;;;6.80;2.38;;;;;;;15.59;77.88;102326.53;5070605;28;20122;-34
2021/10/14 10:09:41;;;;;;;6.32;2.10;;;;;;;15.61;77.94;102327.09;5070130;28;20063;-35
2021/10/14 10:12:10;;;;;;;4.93;2.03;;;;;;;15.62;77.72;102320.31;5067345;28;20127;-35
2021/10/14 10:14:40;;;;;;;6.65;1.80;;;;;;;15.62;77.43;102323.13;5070443;28;20565;-34
2021/10/14 10:17:08;;;;;;;5.95;2.10;;;;;;;15.60;77.20;102321.75;5068723;28;20387;-33
2021/10/14 10:19:45;;;;;;;7.80;2.00;;;;;;;15.56;77.30;102318.72;5070592;28;20045;-35
2021/10/14 10:22:50;;;;;;;3.97;1.80;;;;;;;15.50;76.82;102315.06;5070146;28;20048;-38
2021/10/14 10:25:35;;;;;;;6.45;2.20;;;;;;;15.47;77.38;102320.44;5069840;28;20050;-38
2021/10/14 10:28:06;;;;;;;5.57;2.05;;;;;;;15.45;77.63;102326.38;5065174;28;20037;-34
2021/10/14 10:30:54;;;;;;;7.18;2.38;;;;;;;15.44;77.92;102319.06;5056191;28;20045;-36
2021/10/14 10:33:53;;;;;;;5.28;2.17;;;;;;;15.46;77.62;102305.53;5070223;28;20059;-33
2021/10/14 10:36:53;;;;;;;6.03;2.45;;;;;;;15.45;78.01;102311.47;5059201;28;20056;-34
2021/10/14 10:39:41;;;;;;;4.55;1.90;;;;;;;15.47;78.63;102310.03;5065188;28;20498;-34
2021/10/14 10:42:22;;;;;;;6.95;2.53;;;;;;;15.53;79.08;102308.03;5070053;28;20052;-36
2021/10/14 10:44:51;;;;;;;5.63;2.10;;;;;;;15.52;78.40;102301.56;5069976;28;20051;-35
2021/10/14 10:47:41;;;;;;;5.20;2.05;;;;;;;15.50;78.06;102292.56;5071576;28;20497;-34
2021/10/14 10:50:12;;;;;;;6.55;2.03;;;;;;;15.46;78.40;102299.91;5063516;28;20065;-35
2021/10/14 10:52:41;;;;;;;6.55;1.90;;;;;;;15.46;78.75;102291.47;5073036;28;20054;-34
2021/10/14 10:55:14;;;;;;;3.55;1.42;;;;;;;15.45;79.06;102287.00;5074066;28;20139;-34
2021/10/14 10:57:47;;;;;;;5.55;2.22;;;;;;;15.47;79.34;102283.88;5073371;28;20047;-36
2021/10/14 11:00:16;;;;;;;7.15;2.20;;;;;;;15.44;79.22;102279.69;5073463;28;20442;-34
2021/10/14 11:02:44;;;;;;;5.53;2.47;;;;;;;15.41;79.17;102287.88;5073187;28;20044;-34
2021/10/14 11:05:13;;;;;;;7.93;2.42;;;;;;;15.36;78.99;102279.50;5073657;28;20036;-36
2021/10/14 11:07:41;;;;;;;6.07;2.10;;;;;;;15.33;78.82;102286.56;5072883;28;20053;-37
2021/10/14 11:10:09;;;;;;;6.22;2.40;;;;;;;15.31;79.22;102283.22;5073682;28;20121;-34
2021/10/14 11:12:37;;;;;;;8.30;2.60;;;;;;;15.29;79.34;102277.03;5073467;28;20052;-33
2021/10/14 11:15:16;;;;;;;5.95;2.60;;;;;;;15.28;79.50;102280.97;5072994;28;20044;-34
2021/10/14 11:17:44;;;;;;;6.97;3.10;;;;;;;15.27;79.25;102275.66;5073041;28;20088;-34
2021/10/14 11:20:13;;;;;;;9.07;3.33;;;;;;;15.19;78.98;102263.06;5072919;28;20056;-35
2021/10/14 11:22:48;;;;;;;6.47;3.40;;;;;;;15.17;79.13;102270.97;5073254;28;20517;-34
2021/10/14 11:25:16;;;;;;;6.20;3.42;;;;;;;15.17;79.29;102265.34;5073349;28;20045;-36
2021/10/14 11:27:46;;;;;;;7.65;3.58;;;;;;;15.19;79.53;102257.44;5072520;28;20044;-35
2021/10/14 11:30:18;;;;;;;6.20;3.47;;;;;;;15.21;79.50;102266.41;5073030;28;20052;-34
2021/10/14 11:33:10;;;;;;;5.60;3.17;;;;;;;15.12;79.27;102260.63;5060536;28;20068;-33